CCDO2: Spavinaw Creek nr Colcord OK

Data processed at Sat Mar 10 2018 23:24


All information presented herein is the property of the government of the United States of America and may be revised or deleted at any time without prior notice.
Dissemination of this information without the expressed written consent of the Public Affairs Office, Tulsa District U.S. Army Corps of Engineers is strictly prohibited.
These data are gathered electronically and, as presented, have not undergone any form of quality control. These data are not guaranteed to be valid or correct.
Go to home page.
Go to station list.

Upstream stations:

Downstream station:
Previous Day
Next Day
Current Day
    
SHEF ID:       CCDO2     Spavinaw Creek near Colcord, OK
STATION TYPE:  

               PRECIP     STAGE  RIV-FLOW  WTR-TEMP   DIS-OXY        PH   CONDUCT TURBIDITY  BAT-LOAD
                   in        ft       cfs         F      mg/l        su   umho/cm       NTU      volt
              Ccp-Rev   Ccp-Rev   Ccp-Rev   Ccp-Rev   Ccp-Rev   Ccp-Rev   Ccp-Rev   Ccp-Rev   Ccp-Rev
(US/Central)
03/08 00:00      0.00      8.47       755     51.64      9.72      7.69       264      ----     12.77
03/08 01:00      0.00      8.47       755     51.26      9.75      7.68       264      ----     12.77
03/08 02:00      0.00      8.47       755     50.99      9.77      7.68       264      ----     12.71
03/08 03:00      0.00      8.46       747     50.76      9.79      7.68       264      ----     12.71
03/08 04:00      0.00      8.46       747     50.56      9.82      7.69       264      ----     12.65
03/08 05:00      0.00      8.46       747     50.38      9.82      7.69       265      ----     12.65
03/08 06:00      0.00      8.45       740     50.22      9.86      7.69       265      ----     12.60
03/08 07:00      0.00      8.45       740     50.07      9.88      7.69       265      ----     12.60
03/08 08:00      0.00      8.45       740     50.02      9.91      7.70       265      ----     12.60
03/08 09:00      0.00      8.44       733     50.20      9.99      7.71       265      ----     12.60
03/08 10:00      0.00      8.44       733     50.76     10.04      7.72       265      ----     12.65
03/08 11:00      0.00      8.44       733     51.60     10.08      7.73       265      ----     13.12
03/08 12:00      0.00      8.43       725     52.50     10.10      7.73       265      ----     13.77
03/08 13:00      0.00      8.43       725     53.42     10.09      7.73       265      ----     13.77
03/08 14:00      0.00      8.43       725     54.28     10.08      7.73       266      ----     13.83
03/08 15:00      0.00      8.43       725     54.88     10.03      7.74       266      ----     13.83
03/08 16:00      0.00      8.42       718     55.13      9.98      7.73       266      ----     13.83
03/08 17:00      0.00      8.42       718     55.02      9.92      7.72       266      ----     13.77
03/08 18:00      0.00      8.42       718     54.77      9.84      7.72       266      ----     13.77
03/08 19:00      0.00      8.42       718     54.36      9.77      7.70       266      ----     13.36
03/08 20:00      0.00      8.41       711     53.89      9.70      7.69       266      ----     13.07
03/08 21:00      0.00      8.41       711     53.42      9.66      7.68       266      ----     12.95
03/08 22:00      0.00      8.41       711     53.01      9.64      7.68       266      ----     12.89
03/08 23:00      0.00      8.41       711     52.48      9.64      7.67       266      ----     12.83